createdAt,value
2022-08-17T00:00:43.645Z,99827.47
2022-08-17T00:03:20.779Z,99823.25
2022-08-17T00:05:55.635Z,99827.22
2022-08-17T00:08:30.754Z,99832.66
2022-08-17T00:10:59.711Z,99833.75
2022-08-17T00:13:27.727Z,99836.28
2022-08-17T00:16:08.830Z,99830.00
2022-08-17T00:19:01.979Z,99828.91
2022-08-17T00:21:25.588Z,99826.88
2022-08-17T00:23:54.883Z,99825.06
2022-08-17T00:26:44.855Z,99828.66
2022-08-17T00:29:19.385Z,99821.69
2022-08-17T00:31:48.044Z,99819.50
2022-08-17T00:34:16.444Z,99823.38
2022-08-17T00:36:44.158Z,99824.22
2022-08-17T00:39:11.913Z,99824.56
2022-08-17T00:41:42.170Z,99824.81
2022-08-17T00:44:12.288Z,99824.94
2022-08-17T00:46:44.043Z,99839.06
2022-08-17T00:49:14.390Z,99832.22
2022-08-17T00:51:44.642Z,99844.06
2022-08-17T00:54:27.210Z,99836.31
2022-08-17T00:57:00.770Z,99833.31
2022-08-17T00:59:40.016Z,99838.28
2022-08-17T01:02:12.621Z,99839.41
2022-08-17T01:04:42.476Z,99838.56
2022-08-17T01:07:12.197Z,99830.38
2022-08-17T01:09:41.515Z,99836.75
2022-08-17T01:12:10.815Z,99837.00
2022-08-17T01:14:39.847Z,99827.72
2022-08-17T01:17:09.335Z,99833.28
2022-08-17T01:19:42.080Z,99834.72
2022-08-17T01:22:12.938Z,99833.16
2022-08-17T01:24:57.620Z,99832.31
2022-08-17T01:27:27.445Z,99831.94
2022-08-17T01:30:00.265Z,99826.03
2022-08-17T01:32:30.486Z,99833.28
2022-08-17T01:34:58.974Z,99834.59
2022-08-17T01:37:35.375Z,99843.16
2022-08-17T01:40:13.077Z,99833.25
2022-08-17T01:43:11.433Z,99837.09
2022-08-17T01:45:46.347Z,99841.22
2022-08-17T01:48:14.495Z,99836.88
2022-08-17T01:50:44.582Z,99846.16
2022-08-17T01:53:36.837Z,99843.16
2022-08-17T01:56:12.175Z,99847.97
2022-08-17T01:58:42.944Z,99847.75
2022-08-17T02:01:14.268Z,99852.09
2022-08-17T02:03:56.304Z,99847.75
2022-08-17T02:06:47.115Z,99853.31
2022-08-17T02:09:29.914Z,99853.66
2022-08-17T02:12:47.437Z,99851.97
2022-08-17T02:14:48.306Z,99853.06
2022-08-17T02:17:16.518Z,99861.47
2022-08-17T02:19:44.300Z,99849.56
2022-08-17T02:22:12.271Z,99855.72
2022-08-17T02:24:58.256Z,99849.44
2022-08-17T02:27:28.663Z,99851.38
2022-08-17T02:29:57.669Z,99848.84
2022-08-17T02:32:27.871Z,99855.84
2022-08-17T02:34:58.137Z,99858.84
2022-08-17T02:37:27.943Z,99849.06
2022-08-17T02:39:59.588Z,99847.00
2022-08-17T02:42:34.137Z,99860.50
2022-08-17T02:45:05.242Z,99858.69
2022-08-17T02:47:34.046Z,99864.38
2022-08-17T02:50:02.115Z,99866.19
2022-08-17T02:52:42.797Z,99860.75
2022-08-17T02:55:20.966Z,99860.75
2022-08-17T02:57:49.399Z,99864.25
2022-08-17T03:00:28.930Z,99860.03
2022-08-17T03:02:57.979Z,99858.59
2022-08-17T03:05:30.856Z,99857.25
2022-08-17T03:07:58.769Z,99865.09
2022-08-17T03:10:27.278Z,99863.75
2022-08-17T03:12:55.813Z,99867.28
2022-08-17T03:15:30.519Z,99862.44
2022-08-17T03:18:00.385Z,99866.31
2022-08-17T03:20:30.700Z,99864.13
2022-08-17T03:23:03.004Z,99866.69
2022-08-17T03:25:38.028Z,99871.13
2022-08-17T03:28:07.455Z,99870.63
2022-08-17T03:30:36.876Z,99870.88
2022-08-17T03:33:07.213Z,99877.75
2022-08-17T03:35:37.732Z,99873.78
2022-08-17T03:38:07.497Z,99875.69
2022-08-17T03:40:58.908Z,99882.69
2022-08-17T03:43:24.063Z,99893.06
2022-08-17T03:46:33.899Z,99893.31
2022-08-17T03:49:17.777Z,99888.38
2022-08-17T03:52:04.227Z,99891.84
2022-08-17T03:54:51.009Z,99891.00
2022-08-17T03:57:19.353Z,99892.34
2022-08-17T03:59:47.891Z,99893.31
2022-08-17T04:02:33.248Z,99889.94
2022-08-17T04:05:01.868Z,99884.50
2022-08-17T04:07:31.047Z,99875.69
2022-08-17T04:09:59.562Z,99883.06
2022-08-17T04:12:31.217Z,99888.75
2022-08-17T04:14:59.543Z,99894.56
2022-08-17T04:17:29.394Z,99890.09
2022-08-17T04:19:58.102Z,99892.38
2022-08-17T04:22:31.454Z,99897.94
2022-08-17T04:25:09.928Z,99889.50
2022-08-17T04:27:37.816Z,99901.44
2022-08-17T04:30:07.495Z,99904.47
2022-08-17T04:33:19.197Z,99905.06
2022-08-17T04:35:47.732Z,99904.22
2022-08-17T04:38:18.792Z,99904.56
2022-08-17T04:41:05.939Z,99899.25
2022-08-17T04:43:35.270Z,99899.22
2022-08-17T04:46:09.098Z,99909.13
2022-08-17T04:48:42.832Z,99907.78
2022-08-17T04:51:19.963Z,99905.09
2022-08-17T04:53:54.894Z,99912.44
2022-08-17T04:56:25.969Z,99909.75
2022-08-17T04:58:56.644Z,99904.41
2022-08-17T05:01:28.119Z,99912.41
2022-08-17T05:04:02.357Z,99921.13
2022-08-17T05:06:50.332Z,99919.13
2022-08-17T05:09:19.075Z,99914.00
2022-08-17T05:11:47.057Z,99918.38
2022-08-17T05:14:15.145Z,99920.00
2022-08-17T05:16:43.178Z,99922.06
2022-08-17T05:19:11.008Z,99922.69
2022-08-17T05:21:39.130Z,99923.53
2022-08-17T05:24:07.192Z,99921.03
2022-08-17T05:26:55.105Z,99935.41
2022-08-17T05:29:23.247Z,99941.31
2022-08-17T05:32:38.322Z,99944.28
2022-08-17T05:35:00.533Z,99948.06
2022-08-17T05:37:29.156Z,99944.00
2022-08-17T05:39:57.231Z,99947.78
2022-08-17T05:42:25.218Z,99950.59
2022-08-17T05:44:56.681Z,99952.50
2022-08-17T05:47:26.927Z,99943.94
2022-08-17T05:49:55.624Z,99948.13
2022-08-17T05:52:44.853Z,99951.38
2022-08-17T05:55:50.756Z,99940.03
2022-08-17T05:58:39.006Z,99945.00
2022-08-17T06:01:20.955Z,99948.88
2022-08-17T06:03:48.810Z,99950.06
2022-08-17T06:06:40.719Z,99952.00
2022-08-17T06:09:33.022Z,99950.56
2022-08-17T06:12:07.763Z,99959.75
2022-08-17T06:15:03.906Z,99952.31
2022-08-17T06:17:33.204Z,99953.22
2022-08-17T06:20:14.767Z,99946.47
2022-08-17T06:22:50.691Z,99952.16
2022-08-17T06:25:33.788Z,99957.28
2022-08-17T06:28:14.770Z,99954.03
2022-08-17T06:30:59.743Z,99962.06
2022-08-17T06:33:38.477Z,99958.81
2022-08-17T06:36:15.943Z,99960.94
2022-08-17T06:38:57.327Z,99960.69
2022-08-17T06:41:45.703Z,99963.69
2022-08-17T06:44:50.249Z,99966.19
2022-08-17T06:47:28.766Z,99962.13
2022-08-17T06:50:22.156Z,99961.16
2022-08-17T06:53:01.642Z,99956.34
2022-08-17T06:55:38.422Z,99960.69
2022-08-17T06:58:16.492Z,99950.25
2022-08-17T07:00:47.732Z,99944.66
2022-08-17T07:03:47.968Z,99941.09
2022-08-17T07:06:19.954Z,99946.69
2022-08-17T07:08:56.589Z,99951.91
2022-08-17T07:11:48.163Z,99954.19
2022-08-17T07:14:24.624Z,99952.75
2022-08-17T07:16:56.244Z,99966.56
2022-08-17T07:19:31.869Z,99964.81
2022-08-17T07:22:11.470Z,99965.38
2022-08-17T07:24:45.231Z,99965.69
2022-08-17T07:27:21.431Z,99968.97
2022-08-17T07:30:00.916Z,99975.59
2022-08-17T07:32:46.434Z,99976.03
2022-08-17T07:35:37.942Z,99969.59
2022-08-17T07:38:26.918Z,99971.34
2022-08-17T07:40:58.122Z,99970.88
2022-08-17T07:43:39.370Z,99974.59
2022-08-17T07:46:35.335Z,99977.28
2022-08-17T07:49:03.667Z,99980.44
2022-08-17T07:51:39.328Z,99986.63
2022-08-17T07:54:16.770Z,99982.13
2022-08-17T07:57:13.349Z,99981.47
2022-08-17T08:00:16.132Z,99985.06
2022-08-17T08:02:47.802Z,99975.81
2022-08-17T08:05:49.276Z,99973.66
2022-08-17T08:08:25.487Z,99975.63
2022-08-17T08:11:27.978Z,99977.13
2022-08-17T08:13:58.522Z,99971.78
2022-08-17T08:16:29.817Z,99966.38
2022-08-17T08:19:00.534Z,99969.16
2022-08-17T08:21:42.204Z,99969.16
2022-08-17T08:24:10.945Z,99975.03
2022-08-17T08:26:50.202Z,99976.72
2022-08-17T08:29:46.279Z,99976.94
2022-08-17T08:32:42.914Z,99979.38
2022-08-17T08:35:26.827Z,99975.28
2022-08-17T08:38:20.194Z,99981.72
2022-08-17T08:41:25.494Z,99981.38
2022-08-17T08:44:05.031Z,99981.13
2022-08-17T08:46:58.654Z,99980.84
2022-08-17T08:50:03.491Z,99979.16
2022-08-17T08:52:48.401Z,99978.19
2022-08-17T08:55:34.470Z,99972.50
2022-08-17T08:58:32.289Z,99970.28
2022-08-17T09:01:25.473Z,99958.50
2022-08-17T09:04:25.824Z,99953.06
2022-08-17T09:07:15.548Z,99948.84
2022-08-17T09:09:59.206Z,99952.84
2022-08-17T09:12:44.401Z,99952.78
2022-08-17T09:15:22.166Z,99960.84
2022-08-17T09:19:01.090Z,99959.75
2022-08-17T09:21:34.817Z,99958.75
2022-08-17T09:24:12.829Z,99963.06
2022-08-17T09:26:51.305Z,99954.41
2022-08-17T09:29:24.442Z,99959.50
2022-08-17T09:32:03.740Z,99967.84
2022-08-17T09:34:48.355Z,99966.09
2022-08-17T09:37:46.867Z,99969.38
2022-08-17T09:40:44.090Z,99969.72
2022-08-17T09:43:41.203Z,99961.06
2022-08-17T09:46:34.297Z,99959.72
2022-08-17T09:49:23.159Z,99966.22
2022-08-17T09:52:03.310Z,99963.44
2022-08-17T09:54:38.977Z,99963.88
2022-08-17T09:57:30.184Z,99966.00
2022-08-17T10:00:16.782Z,99969.47
2022-08-17T10:02:56.961Z,99965.97
2022-08-17T10:06:21.623Z,99952.50
2022-08-17T10:09:13.689Z,99958.03
2022-08-17T10:12:23.025Z,99949.97
2022-08-17T10:15:09.838Z,99950.88
2022-08-17T10:17:46.953Z,99961.81
2022-08-17T10:20:30.905Z,99952.13
2022-08-17T10:23:46.648Z,99953.41
2022-08-17T10:26:25.035Z,99961.59
2022-08-17T10:29:06.787Z,99958.91
2022-08-17T10:31:42.652Z,99965.56
2022-08-17T10:34:25.374Z,99962.56
2022-08-17T10:37:15.140Z,99958.59
2022-08-17T10:39:54.725Z,99959.59
2022-08-17T10:42:32.799Z,99960.03
2022-08-17T10:45:28.172Z,99962.44
2022-08-17T10:48:06.245Z,99963.91
2022-08-17T10:50:57.744Z,99956.41
2022-08-17T10:53:40.764Z,99957.63
2022-08-17T10:56:14.695Z,99952.19
2022-08-17T10:58:59.195Z,99953.56
2022-08-17T11:01:32.319Z,99946.66
2022-08-17T11:04:17.679Z,99947.19
2022-08-17T11:07:41.584Z,99945.44
2022-08-17T11:10:54.804Z,99949.31
2022-08-17T11:14:06.890Z,99938.41
2022-08-17T11:16:53.743Z,99936.13
2022-08-17T11:19:39.468Z,99936.28
2022-08-17T11:22:29.971Z,99937.22
2022-08-17T11:25:20.361Z,99931.22
2022-08-17T11:28:04.375Z,99940.22
2022-08-17T11:30:47.045Z,99941.06
2022-08-17T11:33:36.855Z,99941.50
2022-08-17T11:36:14.540Z,99939.22
2022-08-17T11:39:13.256Z,99937.91
2022-08-17T11:42:05.916Z,99941.78
2022-08-17T11:44:52.796Z,99939.22
2022-08-17T11:48:27.983Z,99942.16
2022-08-17T11:51:18.027Z,99941.28
2022-08-17T11:53:46.069Z,99946.78
2022-08-17T11:56:34.787Z,99941.22
2022-08-17T11:59:23.149Z,99932.47
2022-08-17T12:01:55.840Z,99935.91
2022-08-17T12:04:30.603Z,99938.59
2022-08-17T12:07:17.742Z,99938.22
2022-08-17T12:09:50.960Z,99938.72
2022-08-17T12:12:33.011Z,99942.72
2022-08-17T12:15:10.497Z,99947.91
2022-08-17T12:17:42.647Z,99950.25
2022-08-17T12:20:23.482Z,99947.91
2022-08-17T12:22:56.589Z,99937.41
2022-08-17T12:25:51.450Z,99945.25
2022-08-17T12:28:33.268Z,99943.41
2022-08-17T12:31:07.273Z,99941.59
2022-08-17T12:33:37.415Z,99947.78
2022-08-17T12:36:08.703Z,99942.44
2022-08-17T12:38:38.135Z,99946.59
2022-08-17T12:41:26.598Z,99937.91
2022-08-17T12:44:23.194Z,99947.31
2022-08-17T12:46:59.760Z,99944.84
2022-08-17T12:49:34.249Z,99943.84
2022-08-17T12:52:23.681Z,99941.19
2022-08-17T12:55:25.582Z,99938.81
2022-08-17T12:58:01.846Z,99940.09
2022-08-17T13:00:34.783Z,99939.09
2022-08-17T13:03:13.225Z,99948.59
2022-08-17T13:06:03.251Z,99943.75
2022-08-17T13:08:36.646Z,99948.66
2022-08-17T13:11:29.511Z,99942.97
2022-08-17T13:14:08.347Z,99946.53
2022-08-17T13:16:36.394Z,99946.13
2022-08-17T13:19:12.818Z,99950.34
2022-08-17T13:22:04.343Z,99950.53
2022-08-17T13:24:38.572Z,99943.63
2022-08-17T13:27:11.819Z,99937.28
2022-08-17T13:29:45.343Z,99945.00
2022-08-17T13:32:43.967Z,99926.25
2022-08-17T13:35:39.839Z,99929.84
2022-08-17T13:38:15.470Z,99926.47
2022-08-17T13:40:53.163Z,99920.69
2022-08-17T13:43:45.061Z,99925.69
2022-08-17T13:46:19.708Z,99929.09
2022-08-17T13:49:09.529Z,99929.03
2022-08-17T13:51:44.640Z,99927.78
2022-08-17T13:54:40.099Z,99932.19
2022-08-17T13:57:23.285Z,99924.66
2022-08-17T14:00:05.958Z,99932.91
2022-08-17T14:02:35.936Z,99933.28
2022-08-17T14:05:06.388Z,99927.25
2022-08-17T14:07:39.928Z,99930.06
2022-08-17T14:10:17.438Z,99931.44
2022-08-17T14:12:45.819Z,99936.38
2022-08-17T14:15:16.448Z,99928.00
2022-08-17T14:17:44.192Z,99926.19
2022-08-17T14:20:13.441Z,99933.50
2022-08-17T14:22:46.370Z,99936.53
2022-08-17T14:25:19.607Z,99936.78
2022-08-17T14:27:53.564Z,99931.53
2022-08-17T14:30:29.889Z,99936.44
2022-08-17T14:32:58.784Z,99931.63
2022-08-17T14:35:28.855Z,99923.31
2022-08-17T14:37:57.189Z,99934.25
2022-08-17T14:40:25.806Z,99930.66
2022-08-17T14:42:55.483Z,99935.53
2022-08-17T14:45:30.336Z,99940.44
2022-08-17T14:48:07.721Z,99935.81
2022-08-17T14:50:38.834Z,99929.22
2022-08-17T14:53:08.774Z,99929.72
2022-08-17T14:55:39.942Z,99930.81
2022-08-17T14:58:09.105Z,99931.75
2022-08-17T15:00:37.832Z,99933.53
2022-08-17T15:03:05.638Z,99931.63
2022-08-17T15:05:36.611Z,99932.13
2022-08-17T15:08:05.896Z,99925.84
2022-08-17T15:10:35.505Z,99918.06
2022-08-17T15:13:03.334Z,99919.06
2022-08-17T15:15:31.531Z,99924.38
2022-08-17T15:18:00.063Z,99916.94
2022-08-17T15:20:29.831Z,99921.00
2022-08-17T15:22:59.056Z,99924.00
2022-08-17T15:25:29.411Z,99920.94
2022-08-17T15:27:57.269Z,99919.63
2022-08-17T15:30:26.555Z,99926.53
2022-08-17T15:32:57.428Z,99928.75
2022-08-17T15:35:29.081Z,99922.59
2022-08-17T15:38:07.845Z,99925.44
2022-08-17T15:40:45.139Z,99921.94
2022-08-17T15:43:28.222Z,99924.00
2022-08-17T15:46:12.564Z,99930.41
2022-08-17T15:48:42.444Z,99925.16
2022-08-17T15:51:23.383Z,99922.91
2022-08-17T15:53:57.214Z,99922.31
2022-08-17T15:56:26.126Z,99926.00
2022-08-17T15:58:55.228Z,99923.97
2022-08-17T16:02:14.269Z,99922.81
2022-08-17T16:04:26.958Z,99930.78
2022-08-17T16:07:00.028Z,99936.16
2022-08-17T16:09:28.553Z,99935.78
2022-08-17T16:11:56.643Z,99932.38
2022-08-17T16:14:32.423Z,99932.41
2022-08-17T16:17:04.596Z,99935.75
2022-08-17T16:19:34.279Z,99937.44
2022-08-17T16:22:02.596Z,99939.84
2022-08-17T16:24:31.370Z,99937.50
2022-08-17T16:26:59.123Z,99949.25
2022-08-17T16:29:26.815Z,99945.56
2022-08-17T16:31:54.934Z,99952.50
2022-08-17T16:34:22.705Z,99945.59
2022-08-17T16:36:55.167Z,99950.28
2022-08-17T16:39:27.177Z,99950.97
2022-08-17T16:41:56.096Z,99950.28
2022-08-17T16:44:25.839Z,99949.63
2022-08-17T16:46:53.776Z,99958.00
2022-08-17T16:49:31.539Z,99960.00
2022-08-17T16:52:10.399Z,99958.97
2022-08-17T16:54:43.832Z,99963.13
2022-08-17T16:57:13.355Z,99960.63
2022-08-17T16:59:44.928Z,99962.25
2022-08-17T17:02:23.621Z,99967.63
2022-08-17T17:05:16.062Z,99963.91
2022-08-17T17:08:03.345Z,99972.00
2022-08-17T17:10:38.745Z,99978.84
2022-08-17T17:13:17.108Z,99973.47
2022-08-17T17:15:44.788Z,99976.47
2022-08-17T17:18:14.840Z,99977.78
2022-08-17T17:20:54.806Z,99982.56
2022-08-17T17:23:44.821Z,99977.31
2022-08-17T17:26:49.290Z,99982.56
2022-08-17T17:29:26.744Z,99991.84
2022-08-17T17:32:17.283Z,99990.94
2022-08-17T17:34:50.911Z,99988.25
2022-08-17T17:37:26.159Z,99990.66
2022-08-17T17:39:59.841Z,99988.44
2022-08-17T17:42:31.496Z,100000.63
2022-08-17T17:45:08.715Z,100003.84
2022-08-17T17:47:36.656Z,100010.38
2022-08-17T17:50:06.425Z,100010.59
2022-08-17T17:52:47.415Z,100015.44
2022-08-17T17:55:43.406Z,100016.91
2022-08-17T17:58:32.044Z,100023.41
2022-08-17T18:01:24.578Z,100018.22
2022-08-17T18:04:20.634Z,100023.44
2022-08-17T18:06:51.965Z,100010.63
2022-08-17T18:09:51.937Z,100015.28
2022-08-17T18:12:37.228Z,100024.97
2022-08-17T18:15:13.727Z,100025.84
2022-08-17T18:18:02.886Z,100033.22
2022-08-17T18:20:43.209Z,100027.88
2022-08-17T18:23:23.165Z,100031.81
2022-08-17T18:25:56.612Z,100040.97
2022-08-17T18:28:26.780Z,100033.75
2022-08-17T18:31:20.077Z,100042.38
2022-08-17T18:34:45.518Z,100045.16
2022-08-17T18:37:05.198Z,100033.78
2022-08-17T18:39:33.821Z,100034.63
2022-08-17T18:42:03.860Z,100033.31
2022-08-17T18:44:43.966Z,100037.91
2022-08-17T18:47:14.647Z,100036.63
2022-08-17T18:50:10.824Z,100029.72
2022-08-17T18:52:38.747Z,100043.28
2022-08-17T18:55:08.482Z,100051.25
2022-08-17T18:58:07.662Z,100051.06
2022-08-17T19:00:38.298Z,100056.63
2022-08-17T19:03:18.045Z,100062.09
2022-08-17T19:05:52.369Z,100058.94
2022-08-17T19:08:20.239Z,100061.69
2022-08-17T19:10:58.415Z,100064.06
2022-08-17T19:13:35.436Z,100062.00
2022-08-17T19:16:17.716Z,100064.59
2022-08-17T19:18:53.833Z,100066.81
2022-08-17T19:21:34.441Z,100067.00
2022-08-17T19:24:11.714Z,100067.91
2022-08-17T19:26:55.457Z,100079.81
2022-08-17T19:29:51.805Z,100075.72
2022-08-17T19:32:26.287Z,100083.44
2022-08-17T19:34:55.105Z,100078.97
2022-08-17T19:37:44.742Z,100076.38
2022-08-17T19:43:50.487Z,100088.56
2022-08-17T19:46:26.170Z,100082.31
2022-08-17T19:49:08.543Z,100075.53
2022-08-17T19:52:22.439Z,100082.47
2022-08-17T19:55:31.554Z,100082.13
2022-08-17T19:58:19.175Z,100089.63
2022-08-17T20:00:53.497Z,100093.03
2022-08-17T20:03:35.075Z,100090.63
2022-08-17T20:06:13.029Z,100085.53
2022-08-17T20:09:14.650Z,100083.13
2022-08-17T20:11:49.227Z,100087.00
2022-08-17T20:14:36.289Z,100093.66
2022-08-17T20:17:05.847Z,100089.81
2022-08-17T20:19:53.334Z,100095.75
2022-08-17T20:22:52.486Z,100097.19
2022-08-17T20:25:32.420Z,100088.75
2022-08-17T20:28:27.877Z,100086.94
2022-08-17T20:30:56.275Z,100090.81
2022-08-17T20:33:25.860Z,100096.13
2022-08-17T20:36:22.717Z,100102.53
2022-08-17T20:38:57.347Z,100102.16
2022-08-17T20:41:27.933Z,100109.41
2022-08-17T20:43:59.231Z,100112.19
2022-08-17T20:46:29.773Z,100115.81
2022-08-17T20:49:24.330Z,100118.22
2022-08-17T20:52:02.420Z,100121.25
2022-08-17T20:54:42.796Z,100118.47
2022-08-17T20:57:31.412Z,100126.94
2022-08-17T21:00:34.137Z,100120.41
2022-08-17T21:03:50.612Z,100116.41
2022-08-17T21:06:22.567Z,100117.03
2022-08-17T21:08:55.457Z,100119.66
2022-08-17T21:12:02.640Z,100123.50
2022-08-17T21:14:22.057Z,100137.06
2022-08-17T21:17:12.160Z,100131.28
2022-08-17T21:20:10.327Z,100143.72
2022-08-17T21:23:20.429Z,100146.59
2022-08-17T21:25:58.347Z,100152.91
2022-08-17T21:29:00.819Z,100140.84
2022-08-17T21:31:29.246Z,100134.91
2022-08-17T21:34:16.232Z,100131.13
2022-08-17T21:36:45.835Z,100129.91
2022-08-17T21:39:16.428Z,100137.53
2022-08-17T21:41:55.749Z,100146.84
2022-08-17T21:44:35.177Z,100156.69
2022-08-17T21:47:32.356Z,100161.00
2022-08-17T21:50:17.642Z,100154.84
2022-08-17T21:52:46.017Z,100152.78
2022-08-17T21:55:28.324Z,100149.88
2022-08-17T21:58:13.955Z,100149.63
2022-08-17T22:00:44.734Z,100131.84
2022-08-17T22:03:25.951Z,100134.13
2022-08-17T22:05:53.968Z,100137.03
2022-08-17T22:08:24.323Z,100135.59
2022-08-17T22:11:00.151Z,100133.19
2022-08-17T22:13:29.721Z,100125.06
2022-08-17T22:16:15.323Z,100123.97
2022-08-17T22:18:58.985Z,100129.31
2022-08-17T22:21:27.473Z,100119.72
2022-08-17T22:24:18.011Z,100131.09
2022-08-17T22:27:05.087Z,100129.78
2022-08-17T22:29:58.469Z,100129.59
2022-08-17T22:32:41.487Z,100125.72
2022-08-17T22:35:34.708Z,100123.31
2022-08-17T22:38:21.195Z,100121.47
2022-08-17T22:41:34.693Z,100114.09
2022-08-17T22:44:17.752Z,100113.72
2022-08-17T22:46:55.358Z,100114.56
2022-08-17T22:49:53.904Z,100111.41
2022-08-17T22:52:33.430Z,100111.16
2022-08-17T22:55:40.970Z,100097.59
2022-08-17T22:58:33.961Z,100096.41
2022-08-17T23:01:23.597Z,100097.59
2022-08-17T23:04:06.321Z,100101.47
2022-08-17T23:06:37.901Z,100103.13
2022-08-17T23:09:06.967Z,100101.41
2022-08-17T23:11:58.675Z,100098.75
2022-08-17T23:14:31.730Z,100097.06
2022-08-17T23:17:00.909Z,100090.41
2022-08-17T23:19:32.068Z,100093.41
2022-08-17T23:22:01.845Z,100094.38
2022-08-17T23:24:33.135Z,100093.38
2022-08-17T23:27:00.793Z,100081.91
2022-08-17T23:29:29.618Z,100079.75
2022-08-17T23:32:00.102Z,100084.66
2022-08-17T23:34:29.007Z,100078.13
2022-08-17T23:36:57.425Z,100075.81
2022-08-17T23:39:27.966Z,100073.72
2022-08-17T23:42:01.026Z,100084.09
2022-08-17T23:44:31.033Z,100094.44
2022-08-17T23:46:58.822Z,100094.66
2022-08-17T23:49:26.589Z,100093.41
2022-08-17T23:51:55.242Z,100083.88
2022-08-17T23:54:46.508Z,100081.69
2022-08-17T23:57:19.458Z,100070.56
2022-08-17T23:59:47.269Z,100079.06
